createdAt,value
2018-12-06T00:00:29.540Z,19.20
2018-12-06T00:05:46.369Z,19.97
2018-12-06T00:08:17.666Z,21.30
2018-12-06T00:16:40.221Z,28.00
2018-12-06T00:22:05.627Z,28.57
2018-12-06T00:24:35.358Z,30.33
2018-12-06T00:27:08.614Z,30.50
2018-12-06T00:29:36.961Z,29.27
2018-12-06T00:32:05.759Z,31.33
2018-12-06T00:34:34.052Z,30.00
2018-12-06T00:37:02.472Z,31.57
2018-12-06T00:39:30.824Z,30.97
2018-12-06T00:41:59.286Z,32.73
2018-12-06T00:44:27.765Z,32.43
2018-12-06T00:46:56.185Z,32.60
2018-12-06T00:49:25.953Z,31.43
2018-12-06T00:51:58.228Z,33.13
2018-12-06T00:54:29.804Z,35.50
2018-12-06T00:56:58.260Z,35.03
2018-12-06T00:59:26.565Z,34.77
2018-12-06T01:01:56.740Z,35.70
2018-12-06T01:04:25.328Z,33.70
2018-12-06T01:06:53.870Z,35.43
2018-12-06T01:09:25.785Z,34.93
2018-12-06T01:11:54.577Z,34.60
2018-12-06T01:14:27.277Z,34.90
2018-12-06T01:17:07.308Z,32.93
2018-12-06T01:19:36.040Z,31.73
2018-12-06T01:22:06.738Z,29.43
2018-12-06T01:24:35.228Z,31.23
2018-12-06T01:27:03.460Z,29.87
2018-12-06T01:29:37.917Z,29.37
2018-12-06T01:32:06.294Z,28.30
2018-12-06T01:34:35.393Z,27.33
2018-12-06T01:37:03.960Z,27.83
2018-12-06T01:42:12.171Z,27.80
2018-12-06T01:44:40.591Z,27.33
2018-12-06T01:47:10.705Z,28.63
2018-12-06T01:49:39.063Z,28.30
2018-12-06T01:52:08.625Z,29.43
2018-12-06T01:54:37.036Z,27.83
2018-12-06T01:57:05.393Z,29.40
2018-12-06T01:59:34.103Z,31.13
2018-12-06T02:02:02.448Z,31.07
2018-12-06T02:04:31.088Z,30.87
2018-12-06T02:06:59.421Z,31.90
2018-12-06T02:09:28.156Z,33.33
2018-12-06T02:11:56.879Z,30.27
2018-12-06T02:14:25.264Z,33.03
2018-12-06T02:16:53.570Z,33.50
2018-12-06T02:19:33.381Z,31.77
2018-12-06T02:22:02.035Z,32.53
2018-12-06T02:24:30.640Z,32.40
2018-12-06T02:27:01.004Z,33.50
2018-12-06T02:29:33.582Z,33.37
2018-12-06T02:32:03.024Z,34.30
2018-12-06T02:34:31.402Z,31.43
2018-12-06T02:39:55.653Z,32.70
2018-12-06T02:42:26.332Z,34.23
2018-12-06T02:45:00.824Z,33.57
2018-12-06T02:47:39.881Z,33.87
2018-12-06T02:50:08.441Z,33.47
2018-12-06T02:52:36.769Z,34.63
2018-12-06T02:55:05.201Z,34.60
2018-12-06T02:57:38.289Z,35.13
2018-12-06T03:05:48.593Z,34.63
2018-12-06T03:08:16.789Z,34.50
2018-12-06T03:10:45.531Z,34.83
2018-12-06T03:13:14.162Z,34.07
2018-12-06T03:15:42.546Z,33.60
2018-12-06T03:18:13.884Z,35.30
2018-12-06T03:20:42.153Z,35.40
2018-12-06T03:23:10.585Z,33.80
2018-12-06T03:25:40.431Z,35.50
2018-12-06T03:28:10.199Z,35.87
2018-12-06T03:30:45.334Z,34.27
2018-12-06T03:33:16.282Z,35.23
2018-12-06T03:35:44.586Z,33.80
2018-12-06T03:38:12.928Z,36.47
2018-12-06T03:40:54.598Z,36.27
2018-12-06T03:43:23.202Z,35.90
2018-12-06T03:48:47.754Z,33.90
2018-12-06T03:51:16.759Z,35.47
2018-12-06T03:54:01.445Z,35.40
2018-12-06T04:02:13.230Z,34.47
2018-12-06T04:04:51.573Z,34.80
2018-12-06T04:10:23.612Z,34.50
2018-12-06T04:15:50.047Z,32.73
2018-12-06T04:18:18.418Z,34.87
2018-12-06T04:20:58.534Z,34.60
2018-12-06T04:26:32.567Z,34.73
2018-12-06T04:29:01.537Z,32.23
2018-12-06T04:31:29.902Z,34.23
2018-12-06T04:40:03.183Z,33.80
2018-12-06T04:42:33.541Z,33.37
2018-12-06T04:45:03.588Z,34.07
2018-12-06T04:47:43.596Z,33.23
2018-12-06T04:50:23.548Z,34.03
2018-12-06T04:52:52.133Z,33.27
2018-12-06T04:58:25.759Z,32.10
2018-12-06T05:00:55.044Z,33.37
2018-12-06T05:03:24.484Z,32.03
2018-12-06T05:05:53.984Z,31.50
2018-12-06T05:08:24.868Z,32.20
2018-12-06T05:13:48.984Z,30.50
2018-12-06T05:16:18.624Z,31.80
2018-12-06T05:18:47.681Z,31.33
2018-12-06T05:21:16.708Z,30.70
2018-12-06T05:23:45.112Z,29.20
2018-12-06T05:26:13.453Z,30.07
2018-12-06T05:28:41.824Z,29.40
2018-12-06T05:31:14.618Z,28.00
2018-12-06T05:33:43.273Z,29.17
2018-12-06T05:42:04.323Z,25.37
2018-12-06T05:44:42.710Z,24.50
2018-12-06T05:47:11.159Z,24.37
2018-12-06T05:49:40.121Z,23.27
2018-12-06T05:52:16.279Z,22.37
2018-12-06T05:54:44.674Z,22.53
2018-12-06T05:57:12.899Z,20.97
2018-12-06T05:59:41.251Z,21.03
2018-12-06T06:02:09.558Z,21.20
2018-12-06T06:04:37.767Z,21.07
2018-12-06T06:07:06.129Z,20.53
2018-12-06T06:09:34.844Z,20.10
2018-12-06T06:12:03.470Z,20.37
2018-12-06T06:14:31.841Z,20.67
2018-12-06T06:17:00.154Z,19.13
2018-12-06T06:19:28.254Z,19.33
2018-12-06T06:21:56.894Z,19.40
2018-12-06T06:24:34.755Z,18.00
2018-12-06T06:27:03.741Z,18.77
2018-12-06T06:32:33.649Z,18.13
2018-12-06T06:35:15.163Z,18.23
2018-12-06T06:40:53.614Z,17.23
2018-12-06T06:43:39.570Z,15.67
2018-12-06T06:46:21.127Z,15.37
2018-12-06T06:49:01.025Z,15.20
2018-12-06T06:57:24.033Z,12.67
2018-12-06T07:00:04.455Z,11.50
2018-12-06T07:05:45.751Z,10.10
2018-12-06T07:20:11.684Z,6.73
2018-12-06T07:28:25.287Z,5.57
2018-12-06T07:45:33.826Z,5.13
2018-12-06T07:48:12.775Z,4.70
2018-12-06T07:50:53.766Z,5.90
2018-12-06T07:53:32.712Z,6.30
2018-12-06T07:59:11.948Z,5.30
2018-12-06T08:07:40.857Z,5.40
2018-12-06T08:10:22.113Z,5.60
2018-12-06T08:13:02.321Z,6.07
2018-12-06T08:15:37.450Z,5.70
2018-12-06T08:18:16.848Z,5.57
2018-12-06T08:20:56.880Z,5.80
2018-12-06T08:23:35.636Z,5.90
2018-12-06T08:26:14.016Z,6.20
2018-12-06T08:28:54.944Z,6.40
2018-12-06T08:31:33.254Z,6.33
2018-12-06T08:34:08.181Z,6.17
2018-12-06T08:36:48.089Z,6.10
2018-12-06T08:39:20.354Z,6.07
2018-12-06T08:41:50.028Z,6.37
2018-12-06T08:44:21.415Z,6.60
2018-12-06T08:47:01.796Z,6.80
2018-12-06T08:49:46.806Z,6.50
2018-12-06T08:52:28.804Z,6.97
2018-12-06T08:55:08.147Z,6.80
2018-12-06T08:57:48.849Z,6.00
2018-12-06T09:00:29.586Z,6.37
2018-12-06T09:03:10.537Z,6.50
2018-12-06T09:19:59.260Z,6.60
2018-12-06T09:41:58.193Z,6.43
2018-12-06T09:44:27.866Z,6.17
2018-12-06T09:46:58.535Z,6.20
2018-12-06T09:49:37.229Z,7.87
2018-12-06T09:52:18.003Z,7.37
2018-12-06T10:00:50.264Z,7.17
2018-12-06T10:03:20.152Z,5.97
2018-12-06T10:05:50.880Z,5.80
2018-12-06T10:08:20.331Z,6.80
2018-12-06T10:13:57.806Z,6.87
2018-12-06T10:19:35.317Z,7.07
2018-12-06T10:22:17.858Z,6.60
2018-12-06T10:27:56.351Z,6.77
2018-12-06T10:33:30.899Z,7.43
2018-12-06T10:39:11.876Z,8.17
2018-12-06T10:41:56.024Z,7.47
2018-12-06T10:44:32.347Z,7.30
2018-12-06T10:47:12.850Z,6.93
2018-12-06T10:49:53.491Z,6.33
2018-12-06T10:55:19.812Z,7.07
2018-12-06T10:57:57.528Z,7.07
2018-12-06T11:03:33.126Z,7.00
2018-12-06T11:06:13.317Z,7.13
2018-12-06T11:08:47.511Z,7.13
2018-12-06T11:11:26.406Z,6.43
2018-12-06T12:51:06.383Z,6.80
2018-12-06T12:56:22.068Z,6.53
2018-12-06T12:58:50.587Z,6.67
2018-12-06T13:01:31.069Z,7.03
2018-12-06T13:03:59.717Z,7.17
2018-12-06T13:06:28.528Z,7.53
2018-12-06T13:08:57.244Z,8.00
2018-12-06T13:11:37.763Z,7.57
2018-12-06T13:14:15.478Z,7.50
2018-12-06T13:16:49.504Z,7.77
2018-12-06T13:19:19.329Z,7.17
2018-12-06T13:24:43.002Z,7.87
2018-12-06T13:27:13.686Z,8.43
2018-12-06T13:32:28.881Z,7.97
2018-12-06T13:34:57.792Z,7.60
2018-12-06T13:37:26.633Z,7.47
2018-12-06T13:42:45.904Z,8.20
2018-12-06T13:45:16.459Z,7.57
2018-12-06T13:47:49.460Z,6.97
2018-12-06T13:50:33.777Z,7.57
2018-12-06T13:53:02.253Z,8.23
2018-12-06T13:55:37.592Z,7.67
2018-12-06T13:58:13.840Z,7.00
2018-12-06T14:00:53.022Z,8.10
2018-12-06T14:03:23.751Z,8.57
2018-12-06T14:05:56.255Z,7.87
2018-12-06T14:08:26.013Z,6.37
2018-12-06T14:11:10.703Z,5.60
2018-12-06T14:13:39.590Z,5.50
2018-12-06T14:16:10.603Z,4.70
2018-12-06T14:18:39.397Z,4.80
2018-12-06T14:21:17.362Z,3.83
2018-12-06T14:23:45.846Z,3.53
2018-12-06T14:26:26.479Z,3.90
2018-12-06T14:37:45.816Z,3.57
2018-12-06T14:40:14.242Z,3.23
2018-12-06T14:42:42.461Z,3.17
2018-12-06T14:45:10.597Z,3.20
2018-12-06T14:47:38.903Z,3.67
2018-12-06T14:50:08.401Z,3.70
2018-12-06T14:52:36.665Z,3.73
2018-12-06T14:55:05.314Z,4.10
2018-12-06T14:57:33.459Z,3.63
2018-12-06T15:00:01.681Z,3.53
2018-12-06T15:02:30.137Z,4.47
2018-12-06T15:04:58.234Z,4.27
2018-12-06T15:07:26.459Z,4.07
2018-12-06T15:09:54.713Z,3.37
2018-12-06T15:12:22.892Z,2.70
2018-12-06T15:14:51.067Z,3.00
2018-12-06T15:17:19.324Z,4.20
2018-12-06T15:19:47.512Z,3.23
2018-12-06T15:22:15.792Z,2.53
2018-12-06T15:24:44.083Z,2.83
2018-12-06T15:27:12.556Z,2.97
2018-12-06T15:29:40.963Z,3.40
2018-12-06T15:32:09.405Z,2.83
2018-12-06T15:34:37.619Z,3.40
2018-12-06T15:37:05.869Z,3.47
2018-12-06T15:39:34.843Z,3.87
2018-12-06T15:42:03.107Z,3.10
2018-12-06T15:44:31.203Z,3.40
2018-12-06T15:46:59.624Z,3.63
2018-12-06T15:49:27.853Z,4.20
2018-12-06T15:51:57.186Z,3.90
2018-12-06T15:54:25.648Z,3.87
2018-12-06T15:56:54.048Z,4.00
2018-12-06T15:59:22.190Z,3.93
2018-12-06T16:01:50.471Z,3.93
2018-12-06T16:04:18.653Z,3.77
2018-12-06T16:06:47.376Z,4.03
2018-12-06T16:09:15.683Z,3.83
2018-12-06T16:11:44.009Z,3.33
2018-12-06T16:14:12.881Z,3.90
2018-12-06T16:16:41.460Z,4.03
2018-12-06T16:19:09.668Z,4.03
2018-12-06T16:21:37.944Z,3.80
2018-12-06T16:24:06.632Z,3.77
2018-12-06T16:26:34.803Z,3.13
2018-12-06T16:29:03.019Z,3.17
2018-12-06T16:31:31.133Z,4.03
2018-12-06T16:33:59.474Z,4.43
2018-12-06T16:36:28.079Z,4.40
2018-12-06T16:41:52.739Z,5.53
2018-12-06T16:44:21.166Z,5.30
2018-12-06T16:46:49.353Z,4.80
2018-12-06T16:49:18.257Z,5.13
2018-12-06T16:51:47.614Z,4.27
2018-12-06T16:54:16.032Z,4.80
2018-12-06T16:56:44.313Z,5.57
2018-12-06T16:59:12.618Z,4.83
2018-12-06T17:01:40.765Z,4.90
2018-12-06T17:04:08.919Z,4.77
2018-12-06T17:06:37.564Z,5.33
2018-12-06T17:09:16.276Z,5.40
2018-12-06T17:11:44.669Z,4.77
2018-12-06T17:14:13.165Z,4.60
2018-12-06T17:16:41.436Z,6.07
2018-12-06T17:19:09.841Z,4.73
2018-12-06T17:21:37.978Z,4.97
2018-12-06T17:24:15.212Z,5.07
2018-12-06T17:26:43.574Z,5.83
2018-12-06T17:29:12.086Z,5.90
2018-12-06T17:34:20.325Z,5.73
2018-12-06T17:36:50.772Z,5.27
2018-12-06T17:42:17.117Z,5.50
2018-12-06T17:44:45.817Z,5.27
2018-12-06T17:47:14.307Z,5.47
2018-12-06T17:49:42.457Z,5.77
2018-12-06T17:52:10.642Z,4.80
2018-12-06T17:54:38.776Z,4.83
2018-12-06T17:57:06.971Z,4.57
2018-12-06T17:59:35.112Z,4.40
2018-12-06T18:02:05.049Z,4.70
2018-12-06T18:04:33.385Z,3.97
2018-12-06T18:07:01.456Z,3.73
2018-12-06T18:09:30.420Z,3.50
2018-12-06T18:12:01.382Z,3.83
2018-12-06T18:14:30.134Z,4.33
2018-12-06T18:17:00.049Z,4.07
2018-12-06T18:19:28.686Z,3.70
2018-12-06T18:21:56.877Z,3.80
2018-12-06T18:24:31.402Z,3.23
2018-12-06T18:26:59.510Z,3.90
2018-12-06T18:29:27.614Z,3.70
2018-12-06T18:31:55.798Z,2.60
2018-12-06T18:34:24.631Z,2.53
2018-12-06T18:36:52.887Z,2.00
2018-12-06T18:39:33.677Z,2.27
2018-12-06T18:42:02.568Z,1.80
2018-12-06T18:44:35.877Z,2.03
2018-12-06T18:47:04.838Z,1.80
2018-12-06T18:52:19.033Z,2.07
2018-12-06T18:54:48.373Z,2.10
2018-12-06T18:57:17.630Z,2.13
2018-12-06T18:59:46.269Z,2.83
2018-12-06T19:05:07.900Z,3.00
2018-12-06T19:07:36.432Z,2.97
2018-12-06T19:10:05.338Z,3.50
2018-12-06T19:12:34.096Z,3.67
2018-12-06T19:15:03.787Z,3.50
2018-12-06T19:17:33.209Z,3.57
2018-12-06T19:22:57.423Z,4.20
2018-12-06T19:25:26.033Z,5.20
2018-12-06T19:27:55.334Z,3.93
2018-12-06T19:30:24.911Z,4.43
2018-12-06T19:32:57.924Z,4.70
2018-12-06T19:35:23.519Z,4.97
2018-12-06T19:37:51.914Z,4.87
2018-12-06T19:40:20.482Z,4.33
2018-12-06T19:42:48.913Z,4.87
2018-12-06T19:45:17.088Z,5.43
2018-12-06T19:47:45.324Z,6.17
2018-12-06T19:50:14.475Z,6.10
2018-12-06T19:52:42.702Z,7.17
2018-12-06T19:55:10.874Z,6.47
2018-12-06T19:57:39.861Z,6.90
2018-12-06T20:00:08.514Z,6.87
2018-12-06T20:02:37.156Z,5.37
2018-12-06T20:05:05.666Z,5.70
2018-12-06T20:07:34.054Z,5.63
2018-12-06T20:10:02.384Z,5.43
2018-12-06T20:12:31.040Z,6.10
2018-12-06T20:17:33.370Z,6.27
2018-12-06T20:20:02.137Z,6.20
2018-12-06T20:22:30.480Z,6.70
2018-12-06T20:38:24.345Z,6.70
2018-12-06T20:54:15.820Z,7.73
2018-12-06T20:59:28.635Z,7.90
2018-12-06T21:01:56.995Z,7.30
2018-12-06T21:04:25.443Z,7.57
2018-12-06T21:06:55.875Z,8.70
2018-12-06T21:09:24.726Z,7.80
2018-12-06T21:11:53.708Z,6.93
2018-12-06T21:14:26.094Z,8.53
2018-12-06T21:35:47.012Z,6.27
2018-12-06T21:38:15.758Z,7.00
2018-12-06T21:40:44.868Z,7.23
2018-12-06T21:43:13.282Z,5.70
2018-12-06T21:45:42.140Z,5.73
2018-12-06T21:48:10.543Z,5.43
2018-12-06T21:50:38.849Z,5.20
2018-12-06T21:53:07.194Z,5.73
2018-12-06T21:55:35.955Z,5.50
2018-12-06T21:58:04.709Z,6.07
2018-12-06T22:00:33.323Z,5.73
2018-12-06T22:03:01.577Z,5.80
2018-12-06T22:05:31.285Z,5.23
2018-12-06T22:07:59.619Z,5.13
2018-12-06T22:10:27.900Z,5.50
2018-12-06T22:12:56.099Z,5.03
2018-12-06T22:15:24.374Z,5.10
2018-12-06T22:17:52.688Z,5.13
2018-12-06T22:20:21.105Z,5.03
2018-12-06T22:22:49.209Z,5.20
2018-12-06T22:25:18.313Z,5.03
2018-12-06T22:27:46.722Z,5.17
2018-12-06T22:30:14.970Z,4.93
2018-12-06T22:32:43.915Z,4.70
2018-12-06T22:35:12.150Z,5.10
2018-12-06T22:37:40.532Z,4.37
2018-12-06T22:40:08.934Z,4.10
2018-12-06T22:42:37.142Z,4.30
2018-12-06T22:45:15.873Z,4.70
2018-12-06T22:47:44.012Z,4.40
2018-12-06T22:50:12.698Z,4.23
2018-12-06T22:52:41.285Z,4.40
2018-12-06T22:55:09.570Z,4.13
2018-12-06T22:57:37.980Z,3.80
2018-12-06T23:00:07.026Z,3.90
2018-12-06T23:02:36.566Z,4.40
2018-12-06T23:05:05.376Z,4.60
2018-12-06T23:07:34.330Z,4.70
2018-12-06T23:10:03.628Z,5.00
2018-12-06T23:12:31.953Z,4.87
2018-12-06T23:15:00.310Z,4.70
2018-12-06T23:17:29.107Z,4.43
2018-12-06T23:19:58.069Z,5.13
2018-12-06T23:22:26.808Z,4.40
2018-12-06T23:24:55.461Z,4.43
2018-12-06T23:27:24.069Z,4.87
2018-12-06T23:29:52.622Z,4.87
2018-12-06T23:32:21.861Z,5.03
2018-12-06T23:34:50.444Z,5.13
2018-12-06T23:37:19.680Z,5.70
2018-12-06T23:39:48.153Z,5.90
2018-12-06T23:42:16.929Z,5.37
2018-12-06T23:44:45.648Z,5.30
2018-12-06T23:47:15.658Z,6.07
2018-12-06T23:49:44.596Z,6.83
2018-12-06T23:52:13.049Z,6.73
2018-12-06T23:54:53.469Z,7.47
2018-12-06T23:57:23.007Z,6.50
2018-12-06T23:59:51.438Z,6.60
